sensor_id;sensor_type;location;lat;lon;timestamp;pressure;altitude;pressure_sealevel;temperature;humidity
79067;BME280;68470;50.224;14.348;2023-03-23T00:01:06;98776.66;;;8.75;67.23
79067;BME280;68470;50.224;14.348;2023-03-23T00:03:35;98774.19;;;8.73;67.09
79067;BME280;68470;50.224;14.348;2023-03-23T00:06:02;98768.66;;;8.68;67.64
79067;BME280;68470;50.224;14.348;2023-03-23T00:08:38;98763.09;;;8.53;68.45
79067;BME280;68470;50.224;14.348;2023-03-23T00:11:16;98765.25;;;8.41;69.33
79067;BME280;68470;50.224;14.348;2023-03-23T00:13:44;98770.47;;;8.42;69.19
79067;BME280;68470;50.224;14.348;2023-03-23T00:16:18;98774.19;;;8.31;69.15
79067;BME280;68470;50.224;14.348;2023-03-23T00:18:49;98767.88;;;8.31;69.62
79067;BME280;68470;50.224;14.348;2023-03-23T00:21:19;98770.16;;;8.39;69.19
79067;BME280;68470;50.224;14.348;2023-03-23T00:23:45;98767.72;;;8.48;69.04
79067;BME280;68470;50.224;14.348;2023-03-23T00:26:12;98769.66;;;8.52;68.78
79067;BME280;68470;50.224;14.348;2023-03-23T00:28:38;98757.84;;;8.47;69.07
79067;BME280;68470;50.224;14.348;2023-03-23T00:31:07;98764.47;;;8.56;68.59
79067;BME280;68470;50.224;14.348;2023-03-23T00:33:36;98767.28;;;8.71;68.18
79067;BME280;68470;50.224;14.348;2023-03-23T00:36:08;98768.66;;;8.68;68.81
79067;BME280;68470;50.224;14.348;2023-03-23T00:38:35;98749.97;;;8.60;68.74
79067;BME280;68470;50.224;14.348;2023-03-23T00:41:02;98756.84;;;8.68;68.45
79067;BME280;68470;50.224;14.348;2023-03-23T00:43:29;98743.41;;;8.66;68.62
79067;BME280;68470;50.224;14.348;2023-03-23T00:45:56;98756.03;;;8.67;68.55
79067;BME280;68470;50.224;14.348;2023-03-23T00:48:23;98746.97;;;8.62;68.79
79067;BME280;68470;50.224;14.348;2023-03-23T00:50:51;98745.03;;;8.67;68.76
79067;BME280;68470;50.224;14.348;2023-03-23T00:53:18;98737.97;;;8.77;68.34
79067;BME280;68470;50.224;14.348;2023-03-23T00:55:45;98738.28;;;8.90;67.58
79067;BME280;68470;50.224;14.348;2023-03-23T00:58:12;98729.50;;;8.98;67.38
79067;BME280;68470;50.224;14.348;2023-03-23T01:00:39;98735.78;;;8.84;68.08
79067;BME280;68470;50.224;14.348;2023-03-23T01:03:06;98725.94;;;8.93;67.36
79067;BME280;68470;50.224;14.348;2023-03-23T01:05:37;98720.16;;;8.94;67.60
79067;BME280;68470;50.224;14.348;2023-03-23T01:08:05;98712.22;;;8.93;67.65
79067;BME280;68470;50.224;14.348;2023-03-23T01:10:32;98709.47;;;8.93;67.54
79067;BME280;68470;50.224;14.348;2023-03-23T01:12:59;98719.31;;;8.89;67.66
79067;BME280;68470;50.224;14.348;2023-03-23T01:15:29;98721.50;;;8.87;67.54
79067;BME280;68470;50.224;14.348;2023-03-23T01:17:56;98716.31;;;8.90;67.40
79067;BME280;68470;50.224;14.348;2023-03-23T01:20:23;98722.34;;;8.87;67.72
79067;BME280;68470;50.224;14.348;2023-03-23T01:22:49;98715.75;;;8.83;67.90
79067;BME280;68470;50.224;14.348;2023-03-23T01:25:16;98713.53;;;8.75;68.83
79067;BME280;68470;50.224;14.348;2023-03-23T01:27:41;98721.94;;;8.53;70.40
79067;BME280;68470;50.224;14.348;2023-03-23T01:30:10;98720.19;;;8.32;71.47
79067;BME280;68470;50.224;14.348;2023-03-23T01:32:37;98719.81;;;8.13;72.65
79067;BME280;68470;50.224;14.348;2023-03-23T01:35:04;98711.75;;;7.96;72.81
79067;BME280;68470;50.224;14.348;2023-03-23T01:37:30;98711.22;;;7.99;72.44
79067;BME280;68470;50.224;14.348;2023-03-23T01:39:57;98715.16;;;8.19;71.60
79067;BME280;68470;50.224;14.348;2023-03-23T01:42:24;98706.56;;;8.47;70.08
79067;BME280;68470;50.224;14.348;2023-03-23T01:47:19;98703.41;;;8.86;67.44
79067;BME280;68470;50.224;14.348;2023-03-23T01:49:50;98699.59;;;9.02;66.75
79067;BME280;68470;50.224;14.348;2023-03-23T01:52:20;98687.00;;;9.11;66.49
79067;BME280;68470;50.224;14.348;2023-03-23T01:54:51;98680.94;;;9.14;66.25
79067;BME280;68470;50.224;14.348;2023-03-23T01:57:19;98694.66;;;9.14;66.05
79067;BME280;68470;50.224;14.348;2023-03-23T01:59:51;98677.09;;;9.15;65.52
79067;BME280;68470;50.224;14.348;2023-03-23T02:02:20;98690.81;;;9.15;66.23
79067;BME280;68470;50.224;14.348;2023-03-23T02:04:47;98685.88;;;9.07;66.50
79067;BME280;68470;50.224;14.348;2023-03-23T02:07:14;98688.88;;;9.05;67.07
79067;BME280;68470;50.224;14.348;2023-03-23T02:09:41;98690.78;;;8.85;68.91
79067;BME280;68470;50.224;14.348;2023-03-23T02:12:07;98693.97;;;8.56;70.63
79067;BME280;68470;50.224;14.348;2023-03-23T02:14:33;98690.59;;;8.34;72.25
79067;BME280;68470;50.224;14.348;2023-03-23T02:17:09;98694.84;;;8.09;72.91
79067;BME280;68470;50.224;14.348;2023-03-23T02:22:20;98676.59;;;7.83;74.83
79067;BME280;68470;50.224;14.348;2023-03-23T02:25:07;98675.94;;;7.61;75.44
79067;BME280;68470;50.224;14.348;2023-03-23T02:36:30;98672.69;;;7.32;77.20
79067;BME280;68470;50.224;14.348;2023-03-23T02:39:08;98668.28;;;7.26;78.04
79067;BME280;68470;50.224;14.348;2023-03-23T02:41:47;98666.91;;;7.28;77.89
79067;BME280;68470;50.224;14.348;2023-03-23T02:44:15;98666.28;;;7.21;78.10
79067;BME280;68470;50.224;14.348;2023-03-23T02:46:42;98668.53;;;7.24;78.71
79067;BME280;68470;50.224;14.348;2023-03-23T02:49:11;98665.78;;;7.24;78.65
79067;BME280;68470;50.224;14.348;2023-03-23T02:51:39;98672.91;;;7.25;78.97
79067;BME280;68470;50.224;14.348;2023-03-23T02:54:07;98669.66;;;7.28;78.27
79067;BME280;68470;50.224;14.348;2023-03-23T02:56:34;98666.34;;;7.26;77.79
79067;BME280;68470;50.224;14.348;2023-03-23T02:59:01;98669.09;;;7.26;77.94
79067;BME280;68470;50.224;14.348;2023-03-23T03:04:02;98662.47;;;7.22;78.54
79067;BME280;68470;50.224;14.348;2023-03-23T03:06:36;98667.22;;;7.32;77.84
79067;BME280;68470;50.224;14.348;2023-03-23T03:09:13;98655.78;;;7.40;77.05
79067;BME280;68470;50.224;14.348;2023-03-23T03:11:45;98671.09;;;7.73;75.56
79067;BME280;68470;50.224;14.348;2023-03-23T03:14:37;98672.84;;;7.94;73.84
79067;BME280;68470;50.224;14.348;2023-03-23T03:17:20;98677.06;;;8.22;71.94
79067;BME280;68470;50.224;14.348;2023-03-23T03:19:51;98663.22;;;8.44;71.03
79067;BME280;68470;50.224;14.348;2023-03-23T03:22:20;98660.50;;;8.49;70.69
79067;BME280;68470;50.224;14.348;2023-03-23T03:24:48;98659.72;;;8.59;70.34
79067;BME280;68470;50.224;14.348;2023-03-23T03:27:18;98658.34;;;8.66;69.72
79067;BME280;68470;50.224;14.348;2023-03-23T03:29:49;98658.09;;;8.73;69.64
79067;BME280;68470;50.224;14.348;2023-03-23T03:32:21;98649.31;;;8.71;69.44
79067;BME280;68470;50.224;14.348;2023-03-23T03:34:49;98663.31;;;8.74;69.31
79067;BME280;68470;50.224;14.348;2023-03-23T03:37:17;98657.84;;;8.74;69.42
79067;BME280;68470;50.224;14.348;2023-03-23T03:39:44;98661.38;;;8.70;69.39
79067;BME280;68470;50.224;14.348;2023-03-23T03:42:10;98658.91;;;8.58;70.08
79067;BME280;68470;50.224;14.348;2023-03-23T03:44:36;98662.41;;;8.43;71.31
79067;BME280;68470;50.224;14.348;2023-03-23T03:47:02;98663.19;;;8.34;72.01
79067;BME280;68470;50.224;14.348;2023-03-23T03:49:27;98661.44;;;8.23;73.01
79067;BME280;68470;50.224;14.348;2023-03-23T03:51:54;98658.16;;;8.15;73.21
79067;BME280;68470;50.224;14.348;2023-03-23T03:54:19;98659.75;;;8.06;73.14
79067;BME280;68470;50.224;14.348;2023-03-23T03:56:46;98655.34;;;8.00;73.23
79067;BME280;68470;50.224;14.348;2023-03-23T03:59:12;98649.88;;;8.05;73.14
79067;BME280;68470;50.224;14.348;2023-03-23T04:01:38;98659.25;;;8.14;72.77
79067;BME280;68470;50.224;14.348;2023-03-23T04:04:04;98649.91;;;8.10;73.13
79067;BME280;68470;50.224;14.348;2023-03-23T04:06:33;98655.94;;;8.12;72.84
79067;BME280;68470;50.224;14.348;2023-03-23T04:09:04;98658.16;;;8.21;72.13
79067;BME280;68470;50.224;14.348;2023-03-23T04:11:32;98645.91;;;8.38;71.21
79067;BME280;68470;50.224;14.348;2023-03-23T04:13:58;98645.97;;;8.54;70.85
79067;BME280;68470;50.224;14.348;2023-03-23T04:16:24;98657.81;;;8.64;70.23
79067;BME280;68470;50.224;14.348;2023-03-23T04:18:51;98646.31;;;8.78;69.50
79067;BME280;68470;50.224;14.348;2023-03-23T04:21:18;98646.59;;;8.81;69.29
79067;BME280;68470;50.224;14.348;2023-03-23T04:23:44;98646.63;;;8.96;69.06
79067;BME280;68470;50.224;14.348;2023-03-23T04:26:10;98642.22;;;9.05;68.22
79067;BME280;68470;50.224;14.348;2023-03-23T04:28:39;98643.59;;;9.13;68.07
79067;BME280;68470;50.224;14.348;2023-03-23T04:31:07;98645.78;;;9.21;67.36
79067;BME280;68470;50.224;14.348;2023-03-23T04:33:34;98656.78;;;9.31;66.88
79067;BME280;68470;50.224;14.348;2023-03-23T04:36:00;98651.56;;;9.35;66.78
79067;BME280;68470;50.224;14.348;2023-03-23T04:38:28;98653.50;;;9.45;66.42
79067;BME280;68470;50.224;14.348;2023-03-23T04:40:55;98657.06;;;9.45;66.39
79067;BME280;68470;50.224;14.348;2023-03-23T04:43:22;98651.31;;;9.42;66.80
79067;BME280;68470;50.224;14.348;2023-03-23T04:45:54;98662.28;;;9.47;66.50
79067;BME280;68470;50.224;14.348;2023-03-23T04:48:24;98644.69;;;9.53;66.19
79067;BME280;68470;50.224;14.348;2023-03-23T04:50:50;98656.75;;;9.67;65.73
79067;BME280;68470;50.224;14.348;2023-03-23T04:53:17;98653.47;;;9.75;65.66
79067;BME280;68470;50.224;14.348;2023-03-23T04:55:44;98657.00;;;9.71;65.65
79067;BME280;68470;50.224;14.348;2023-03-23T04:58:10;98650.72;;;9.75;65.37
79067;BME280;68470;50.224;14.348;2023-03-23T05:00:40;98654.81;;;9.78;65.36
79067;BME280;68470;50.224;14.348;2023-03-23T05:03:12;98666.59;;;9.88;65.07
79067;BME280;68470;50.224;14.348;2023-03-23T05:05:43;98660.56;;;9.91;64.90
79067;BME280;68470;50.224;14.348;2023-03-23T05:08:15;98653.97;;;9.92;64.65
79067;BME280;68470;50.224;14.348;2023-03-23T05:10:41;98656.94;;;10.06;63.60
79067;BME280;68470;50.224;14.348;2023-03-23T05:13:07;98649.47;;;10.17;63.26
79067;BME280;68470;50.224;14.348;2023-03-23T05:15:33;98664.31;;;10.31;62.67
79067;BME280;68470;50.224;14.348;2023-03-23T05:17:58;98664.75;;;10.59;61.57
79067;BME280;68470;50.224;14.348;2023-03-23T05:20:24;98663.53;;;10.75;60.56
79067;BME280;68470;50.224;14.348;2023-03-23T05:22:51;98650.81;;;10.84;60.10
79067;BME280;68470;50.224;14.348;2023-03-23T05:25:18;98657.97;;;10.85;60.52
79067;BME280;68470;50.224;14.348;2023-03-23T05:27:46;98654.63;;;10.93;60.26
79067;BME280;68470;50.224;14.348;2023-03-23T05:30:20;98653.53;;;10.89;60.40
79067;BME280;68470;50.224;14.348;2023-03-23T05:32:50;98649.44;;;10.87;60.02
79067;BME280;68470;50.224;14.348;2023-03-23T05:35:19;98647.09;;;11.09;58.85
79067;BME280;68470;50.224;14.348;2023-03-23T05:37:45;98642.06;;;11.16;59.24
79067;BME280;68470;50.224;14.348;2023-03-23T05:40:12;98644.69;;;11.31;58.50
79067;BME280;68470;50.224;14.348;2023-03-23T05:42:40;98650.22;;;11.31;57.90
79067;BME280;68470;50.224;14.348;2023-03-23T05:45:08;98654.91;;;11.31;58.05
79067;BME280;68470;50.224;14.348;2023-03-23T05:47:35;98653.16;;;11.40;57.50
79067;BME280;68470;50.224;14.348;2023-03-23T05:50:01;98654.72;;;11.51;57.15
79067;BME280;68470;50.224;14.348;2023-03-23T05:52:27;98667.31;;;11.62;57.05
79067;BME280;68470;50.224;14.348;2023-03-23T05:54:53;98652.72;;;11.62;57.08
79067;BME280;68470;50.224;14.348;2023-03-23T05:57:20;98666.13;;;11.68;56.90
79067;BME280;68470;50.224;14.348;2023-03-23T05:59:49;98673.00;;;11.71;56.93
79067;BME280;68470;50.224;14.348;2023-03-23T06:02:15;98658.41;;;11.70;56.60
79067;BME280;68470;50.224;14.348;2023-03-23T06:04:41;98658.34;;;11.75;56.77
79067;BME280;68470;50.224;14.348;2023-03-23T06:07:08;98650.63;;;11.78;56.56
79067;BME280;68470;50.224;14.348;2023-03-23T06:09:39;98650.59;;;11.83;56.29
79067;BME280;68470;50.224;14.348;2023-03-23T06:12:06;98656.34;;;11.86;55.94
79067;BME280;68470;50.224;14.348;2023-03-23T06:14:32;98656.63;;;11.85;56.19
79067;BME280;68470;50.224;14.348;2023-03-23T06:16:59;98647.84;;;11.83;55.87
79067;BME280;68470;50.224;14.348;2023-03-23T06:19:25;98651.88;;;11.90;55.90
79067;BME280;68470;50.224;14.348;2023-03-23T06:21:54;98652.66;;;11.96;56.21
79067;BME280;68470;50.224;14.348;2023-03-23T06:24:21;98657.66;;;11.94;56.73
79067;BME280;68470;50.224;14.348;2023-03-23T06:26:47;98658.66;;;12.03;55.86
79067;BME280;68470;50.224;14.348;2023-03-23T06:29:13;98661.41;;;12.03;56.36
79067;BME280;68470;50.224;14.348;2023-03-23T06:31:42;98655.06;;;12.02;56.11
79067;BME280;68470;50.224;14.348;2023-03-23T06:34:09;98652.22;;;12.13;55.08
79067;BME280;68470;50.224;14.348;2023-03-23T06:36:35;98650.19;;;12.18;55.17
79067;BME280;68470;50.224;14.348;2023-03-23T06:39:02;98643.78;;;12.23;54.92
79067;BME280;68470;50.224;14.348;2023-03-23T06:41:33;98654.44;;;12.34;55.59
79067;BME280;68470;50.224;14.348;2023-03-23T06:44:00;98648.72;;;12.50;54.98
79067;BME280;68470;50.224;14.348;2023-03-23T06:46:26;98650.81;;;12.58;53.44
79067;BME280;68470;50.224;14.348;2023-03-23T06:48:54;98650.25;;;12.61;54.19
79067;BME280;68470;50.224;14.348;2023-03-23T06:51:20;98640.06;;;12.56;54.63
79067;BME280;68470;50.224;14.348;2023-03-23T06:53:46;98656.94;;;12.55;55.10
79067;BME280;68470;50.224;14.348;2023-03-23T06:56:12;98664.31;;;12.59;55.23
79067;BME280;68470;50.224;14.348;2023-03-23T06:58:39;98657.31;;;12.67;55.25
79067;BME280;68470;50.224;14.348;2023-03-23T07:01:07;98661.59;;;12.78;54.79
79067;BME280;68470;50.224;14.348;2023-03-23T07:03:34;98652.31;;;12.69;55.30
79067;BME280;68470;50.224;14.348;2023-03-23T07:05:59;98651.72;;;12.72;54.84
79067;BME280;68470;50.224;14.348;2023-03-23T07:08:25;98666.13;;;12.88;55.21
79067;BME280;68470;50.224;14.348;2023-03-23T07:10:53;98661.00;;;13.00;53.92
79067;BME280;68470;50.224;14.348;2023-03-23T07:13:20;98665.53;;;13.10;53.93
79067;BME280;68470;50.224;14.348;2023-03-23T07:15:46;98664.88;;;13.37;53.01
79067;BME280;68470;50.224;14.348;2023-03-23T07:18:12;98678.53;;;13.47;52.38
79067;BME280;68470;50.224;14.348;2023-03-23T07:20:38;98661.56;;;13.53;52.78
79067;BME280;68470;50.224;14.348;2023-03-23T07:23:05;98664.59;;;13.71;51.55
79067;BME280;68470;50.224;14.348;2023-03-23T07:25:34;98662.66;;;13.85;51.39
79067;BME280;68470;50.224;14.348;2023-03-23T07:28:01;98670.06;;;14.03;51.36
79067;BME280;68470;50.224;14.348;2023-03-23T07:30:28;98677.06;;;14.14;50.46
79067;BME280;68470;50.224;14.348;2023-03-23T07:32:56;98682.19;;;14.35;49.76
79067;BME280;68470;50.224;14.348;2023-03-23T07:35:23;98687.53;;;14.86;48.60
79067;BME280;68470;50.224;14.348;2023-03-23T07:37:49;98678.25;;;15.04;49.19
79067;BME280;68470;50.224;14.348;2023-03-23T07:40:17;98679.41;;;15.26;49.09
79067;BME280;68470;50.224;14.348;2023-03-23T07:42:45;98672.31;;;15.56;46.77
79067;BME280;68470;50.224;14.348;2023-03-23T07:45:13;98680.47;;;15.97;46.17
79067;BME280;68470;50.224;14.348;2023-03-23T07:47:40;98667.91;;;16.39;45.18
79067;BME280;68470;50.224;14.348;2023-03-23T07:50:06;98666.72;;;16.71;44.23
79067;BME280;68470;50.224;14.348;2023-03-23T07:52:33;98658.59;;;17.09;42.96
79067;BME280;68470;50.224;14.348;2023-03-23T07:55:00;98642.16;;;18.79;40.26
79067;BME280;68470;50.224;14.348;2023-03-23T07:57:28;98644.91;;;18.12;40.23
79067;BME280;68470;50.224;14.348;2023-03-23T07:59:54;98640.66;;;19.86;35.84
79067;BME280;68470;50.224;14.348;2023-03-23T08:02:21;98655.00;;;17.78;40.73
79067;BME280;68470;50.224;14.348;2023-03-23T08:04:47;98649.94;;;17.54;41.94
79067;BME280;68470;50.224;14.348;2023-03-23T08:07:13;98658.72;;;16.78;43.35
79067;BME280;68470;50.224;14.348;2023-03-23T08:09:42;98657.13;;;16.95;43.14
79067;BME280;68470;50.224;14.348;2023-03-23T08:12:08;98643.56;;;16.36;43.91
79067;BME280;68470;50.224;14.348;2023-03-23T08:14:34;98661.22;;;16.40;44.67
79067;BME280;68470;50.224;14.348;2023-03-23T08:17:00;98665.69;;;16.59;44.50
79067;BME280;68470;50.224;14.348;2023-03-23T08:19:26;98662.69;;;16.86;44.82
79067;BME280;68470;50.224;14.348;2023-03-23T08:21:52;98664.47;;;16.42;45.03
79067;BME280;68470;50.224;14.348;2023-03-23T08:24:19;98664.97;;;16.44;44.96
79067;BME280;68470;50.224;14.348;2023-03-23T08:26:45;98665.09;;;16.79;45.00
79067;BME280;68470;50.224;14.348;2023-03-23T08:29:11;98654.38;;;17.03;43.92
79067;BME280;68470;50.224;14.348;2023-03-23T08:31:38;98668.94;;;17.18;43.46
79067;BME280;68470;50.224;14.348;2023-03-23T08:34:05;98659.63;;;17.13;43.37
79067;BME280;68470;50.224;14.348;2023-03-23T08:36:32;98664.53;;;17.34;43.33
79067;BME280;68470;50.224;14.348;2023-03-23T08:38:58;98675.66;;;17.34;42.41
79067;BME280;68470;50.224;14.348;2023-03-23T08:41:25;98669.56;;;16.97;43.28
79067;BME280;68470;50.224;14.348;2023-03-23T08:43:51;98667.91;;;16.88;43.80
79067;BME280;68470;50.224;14.348;2023-03-23T08:46:18;98673.47;;;16.88;43.53
79067;BME280;68470;50.224;14.348;2023-03-23T08:48:46;98656.78;;;16.96;43.42
79067;BME280;68470;50.224;14.348;2023-03-23T08:51:12;98668.41;;;16.90;43.96
79067;BME280;68470;50.224;14.348;2023-03-23T08:53:39;98666.81;;;17.14;44.05
79067;BME280;68470;50.224;14.348;2023-03-23T08:56:10;98666.63;;;17.11;43.70
79067;BME280;68470;50.224;14.348;2023-03-23T08:58:38;98654.53;;;17.24;43.23
79067;BME280;68470;50.224;14.348;2023-03-23T09:01:05;98655.34;;;17.25;42.85
79067;BME280;68470;50.224;14.348;2023-03-23T09:03:33;98667.28;;;16.99;43.40
79067;BME280;68470;50.224;14.348;2023-03-23T09:06:00;98665.00;;;17.01;43.68
79067;BME280;68470;50.224;14.348;2023-03-23T09:08:28;98656.66;;;17.19;43.56
79067;BME280;68470;50.224;14.348;2023-03-23T09:11:02;98660.72;;;17.12;43.41
79067;BME280;68470;50.224;14.348;2023-03-23T09:13:28;98658.47;;;17.23;42.18
79067;BME280;68470;50.224;14.348;2023-03-23T09:15:54;98650.47;;;17.30;40.55
79067;BME280;68470;50.224;14.348;2023-03-23T09:18:20;98647.00;;;17.51;40.65
79067;BME280;68470;50.224;14.348;2023-03-23T09:20:49;98652.41;;;17.64;39.68
79067;BME280;68470;50.224;14.348;2023-03-23T09:23:15;98648.66;;;17.52;39.17
79067;BME280;68470;50.224;14.348;2023-03-23T09:25:42;98654.34;;;17.55;38.88
79067;BME280;68470;50.224;14.348;2023-03-23T09:28:08;98653.84;;;17.62;40.27
79067;BME280;68470;50.224;14.348;2023-03-23T09:30:37;98635.19;;;17.88;38.25
79067;BME280;68470;50.224;14.348;2023-03-23T09:33:04;98648.69;;;18.16;38.32
79067;BME280;68470;50.224;14.348;2023-03-23T09:35:32;98647.09;;;18.82;39.03
79067;BME280;68470;50.224;14.348;2023-03-23T09:38:00;98632.13;;;19.49;36.93
79067;BME280;68470;50.224;14.348;2023-03-23T09:40:32;98634.38;;;20.59;33.88
79067;BME280;68470;50.224;14.348;2023-03-23T09:48:32;98661.75;;;18.32;36.27
79067;BME280;68470;50.224;14.348;2023-03-23T09:51:42;98661.38;;;17.87;36.99
79067;BME280;68470;50.224;14.348;2023-03-23T09:56:44;98668.75;;;17.74;37.84
79067;BME280;68470;50.224;14.348;2023-03-23T09:59:20;98675.66;;;17.51;37.17
79067;BME280;68470;50.224;14.348;2023-03-23T10:01:53;98667.13;;;17.56;38.93
79067;BME280;68470;50.224;14.348;2023-03-23T10:04:35;98675.31;;;17.44;39.09
79067;BME280;68470;50.224;14.348;2023-03-23T10:07:15;98674.81;;;17.42;40.21
79067;BME280;68470;50.224;14.348;2023-03-23T10:09:44;98671.06;;;17.21;38.75
79067;BME280;68470;50.224;14.348;2023-03-23T10:22:50;98665.00;;;17.44;38.32
79067;BME280;68470;50.224;14.348;2023-03-23T10:25:22;98679.56;;;17.50;38.74
79067;BME280;68470;50.224;14.348;2023-03-23T10:28:11;98674.00;;;17.50;39.78
79067;BME280;68470;50.224;14.348;2023-03-23T10:30:43;98655.50;;;17.71;38.50
79067;BME280;68470;50.224;14.348;2023-03-23T10:35:52;98653.09;;;19.56;35.45
79067;BME280;68470;50.224;14.348;2023-03-23T10:38:25;98661.72;;;20.90;33.67
79067;BME280;68470;50.224;14.348;2023-03-23T10:40:59;98643.00;;;20.66;33.15
79067;BME280;68470;50.224;14.348;2023-03-23T10:43:26;98653.41;;;21.18;32.11
79067;BME280;68470;50.224;14.348;2023-03-23T10:46:00;98646.88;;;21.14;34.40
79067;BME280;68470;50.224;14.348;2023-03-23T10:48:36;98646.44;;;20.99;33.29
79067;BME280;68470;50.224;14.348;2023-03-23T10:51:08;98641.00;;;20.54;33.78
79067;BME280;68470;50.224;14.348;2023-03-23T10:53:44;98648.41;;;20.26;33.86
79067;BME280;68470;50.224;14.348;2023-03-23T10:56:35;98659.56;;;19.68;36.21
79067;BME280;68470;50.224;14.348;2023-03-23T10:59:19;98645.84;;;18.92;36.76
79067;BME280;68470;50.224;14.348;2023-03-23T11:01:50;98644.53;;;19.19;38.00
79067;BME280;68470;50.224;14.348;2023-03-23T11:04:18;98646.06;;;18.87;37.82
79067;BME280;68470;50.224;14.348;2023-03-23T11:07:03;98665.34;;;19.21;38.90
79067;BME280;68470;50.224;14.348;2023-03-23T11:09:51;98644.66;;;19.22;36.38
79067;BME280;68470;50.224;14.348;2023-03-23T11:12:18;98648.06;;;19.49;36.89
79067;BME280;68470;50.224;14.348;2023-03-23T11:14:44;98659.09;;;19.66;37.33
79067;BME280;68470;50.224;14.348;2023-03-23T11:17:25;98648.59;;;19.01;36.59
79067;BME280;68470;50.224;14.348;2023-03-23T11:19:52;98650.13;;;18.60;37.97
79067;BME280;68470;50.224;14.348;2023-03-23T11:22:27;98661.50;;;18.46;39.01
79067;BME280;68470;50.224;14.348;2023-03-23T11:24:55;98643.88;;;18.33;38.38
79067;BME280;68470;50.224;14.348;2023-03-23T11:27:23;98643.94;;;18.46;38.50
79067;BME280;68470;50.224;14.348;2023-03-23T11:29:55;98645.75;;;18.50;39.11
79067;BME280;68470;50.224;14.348;2023-03-23T11:32:25;98659.38;;;18.43;39.25
79067;BME280;68470;50.224;14.348;2023-03-23T11:34:59;98651.06;;;18.34;39.62
79067;BME280;68470;50.224;14.348;2023-03-23T11:42:44;98654.94;;;18.04;40.08
79067;BME280;68470;50.224;14.348;2023-03-23T11:45:35;98655.66;;;17.84;40.34
79067;BME280;68470;50.224;14.348;2023-03-23T11:56:08;98652.53;;;17.85;41.49
79067;BME280;68470;50.224;14.348;2023-03-23T11:58:37;98651.72;;;17.85;40.76
79067;BME280;68470;50.224;14.348;2023-03-23T12:01:15;98637.81;;;17.85;40.19
79067;BME280;68470;50.224;14.348;2023-03-23T12:06:39;98653.50;;;17.89;39.81
79067;BME280;68470;50.224;14.348;2023-03-23T12:09:19;98655.66;;;17.84;39.83
79067;BME280;68470;50.224;14.348;2023-03-23T12:12:18;98662.88;;;17.67;39.74
79067;BME280;68470;50.224;14.348;2023-03-23T12:17:44;98663.03;;;17.36;40.52
79067;BME280;68470;50.224;14.348;2023-03-23T12:20:48;98666.66;;;17.37;41.74
79067;BME280;68470;50.224;14.348;2023-03-23T12:23:28;98672.38;;;17.32;40.92
79067;BME280;68470;50.224;14.348;2023-03-23T12:26:21;98673.66;;;17.26;41.08
79067;BME280;68470;50.224;14.348;2023-03-23T12:48:18;98648.50;;;17.48;40.90
79067;BME280;68470;50.224;14.348;2023-03-23T12:53:44;98642.28;;;17.34;41.97
79067;BME280;68470;50.224;14.348;2023-03-23T12:58:50;98641.78;;;17.40;41.88
79067;BME280;68470;50.224;14.348;2023-03-23T13:01:29;98642.94;;;17.31;42.46
79067;BME280;68470;50.224;14.348;2023-03-23T13:04:07;98643.75;;;17.31;43.58
79067;BME280;68470;50.224;14.348;2023-03-23T13:06:39;98643.41;;;17.33;42.38
79067;BME280;68470;50.224;14.348;2023-03-23T13:09:14;98646.19;;;17.33;43.52
79067;BME280;68470;50.224;14.348;2023-03-23T13:11:43;98654.06;;;17.31;44.41
79067;BME280;68470;50.224;14.348;2023-03-23T13:14:18;98648.16;;;17.24;43.84
79067;BME280;68470;50.224;14.348;2023-03-23T13:19:24;98651.09;;;17.10;44.82
79067;BME280;68470;50.224;14.348;2023-03-23T13:22:21;98645.38;;;17.06;43.88
79067;BME280;68470;50.224;14.348;2023-03-23T13:25:02;98642.75;;;17.10;43.82
79067;BME280;68470;50.224;14.348;2023-03-23T13:27:32;98634.91;;;17.21;43.22
79067;BME280;68470;50.224;14.348;2023-03-23T13:29:58;98642.28;;;17.17;43.54
79067;BME280;68470;50.224;14.348;2023-03-23T13:32:37;98637.69;;;17.21;44.70
79067;BME280;68470;50.224;14.348;2023-03-23T13:35:05;98647.19;;;17.20;44.42
79067;BME280;68470;50.224;14.348;2023-03-23T13:37:42;98647.19;;;17.20;44.22
79067;BME280;68470;50.224;14.348;2023-03-23T13:42:48;98643.91;;;17.35;44.29
79067;BME280;68470;50.224;14.348;2023-03-23T13:47:47;98638.50;;;17.38;42.72
79067;BME280;68470;50.224;14.348;2023-03-23T13:50:27;98644.38;;;17.28;43.48
79067;BME280;68470;50.224;14.348;2023-03-23T13:52:59;98644.38;;;17.28;44.08
79067;BME280;68470;50.224;14.348;2023-03-23T13:55:39;98644.06;;;17.30;43.18
79067;BME280;68470;50.224;14.348;2023-03-23T14:05:38;98643.75;;;17.23;44.27
79067;BME280;68470;50.224;14.348;2023-03-23T14:10:34;98660.94;;;17.16;43.69
79067;BME280;68470;50.224;14.348;2023-03-23T14:13:03;98643.56;;;17.10;44.46
79067;BME280;68470;50.224;14.348;2023-03-23T14:15:36;98646.34;;;17.10;44.23
79067;BME280;68470;50.224;14.348;2023-03-23T14:18:04;98639.97;;;17.01;43.89
79067;BME280;68470;50.224;14.348;2023-03-23T14:20:33;98632.13;;;17.03;44.40
79067;BME280;68470;50.224;14.348;2023-03-23T14:23:00;98637.84;;;17.07;45.12
79067;BME280;68470;50.224;14.348;2023-03-23T14:25:28;98642.09;;;17.13;44.41
79067;BME280;68470;50.224;14.348;2023-03-23T14:27:56;98636.38;;;17.09;44.70
79067;BME280;68470;50.224;14.348;2023-03-23T14:30:24;98639.50;;;17.17;45.32
79067;BME280;68470;50.224;14.348;2023-03-23T14:32:52;98635.72;;;17.21;44.56
79067;BME280;68470;50.224;14.348;2023-03-23T14:35:32;98653.72;;;17.41;44.14
79067;BME280;68470;50.224;14.348;2023-03-23T14:37:59;98647.81;;;17.51;44.84
79067;BME280;68470;50.224;14.348;2023-03-23T14:40:29;98642.75;;;17.53;44.33
79067;BME280;68470;50.224;14.348;2023-03-23T14:42:57;98648.47;;;17.65;43.88
79067;BME280;68470;50.224;14.348;2023-03-23T14:45:25;98652.91;;;17.49;44.16